Terminal Aerodrome Forecast
Issued by NWS

Home | Current Version | Previous Version | Text Only | Print | Product List | Glossary On
Versions: 1 2 3 4 5 6 7 8 9 10 11 12 13 14 15 16 17 18 19 20 21 22 23 24 25 26 27 28 29 30
384
FTUS41 KOKX 190526
TAFGON
TAF
KGON 190526Z 1906/2006 VRB02KT P6SM SCT250
     FM191000 15005KT P6SM BKN250
     FM191300 18008KT P6SM BKN250
     FM191700 18010KT P6SM SCT030 BKN080
     FM192100 18009KT P6SM BKN030
     FM192300 18007KT 4SM -SHRA BR BKN009 OVC015=

USA.gov is the U.S. government's official web portal to all federal, state and local government web resources and services.